createdAt,value
2022-12-09T00:00:21.270Z,10.65
2022-12-09T00:03:23.972Z,11.05
2022-12-09T00:06:28.621Z,11.00
2022-12-09T00:09:30.364Z,10.98
2022-12-09T00:12:32.012Z,12.35
2022-12-09T00:15:33.979Z,11.73
2022-12-09T00:18:36.145Z,11.38
2022-12-09T00:21:38.103Z,11.10
2022-12-09T00:24:39.921Z,9.20
2022-12-09T00:27:41.727Z,10.38
2022-12-09T00:30:43.758Z,10.40
2022-12-09T00:33:46.452Z,11.55
2022-12-09T00:36:48.469Z,12.95
2022-12-09T00:39:50.343Z,11.20
2022-12-09T00:42:53.111Z,12.15
2022-12-09T00:45:55.961Z,11.93
2022-12-09T00:48:58.127Z,12.85
2022-12-09T00:51:59.974Z,11.20
2022-12-09T00:55:02.315Z,11.10
2022-12-09T00:58:04.298Z,10.68
2022-12-09T01:01:06.474Z,12.27
2022-12-09T01:04:08.689Z,11.32
2022-12-09T01:07:10.982Z,12.27
2022-12-09T01:10:13.105Z,11.82
2022-12-09T01:13:16.366Z,10.88
2022-12-09T01:16:26.724Z,10.85
2022-12-09T01:19:28.523Z,10.43
2022-12-09T01:22:30.278Z,11.07
2022-12-09T01:25:32.357Z,12.63
2022-12-09T01:28:36.062Z,10.85
2022-12-09T01:31:39.282Z,10.93
2022-12-09T01:34:41.057Z,11.45
2022-12-09T01:37:42.675Z,10.82
2022-12-09T01:40:47.793Z,10.10
2022-12-09T01:44:16.977Z,10.77
2022-12-09T01:47:23.097Z,10.63
2022-12-09T01:50:26.575Z,9.63
2022-12-09T01:53:36.332Z,10.77
2022-12-09T01:56:40.924Z,10.73
2022-12-09T01:59:45.995Z,10.75
2022-12-09T02:02:49.724Z,9.95
2022-12-09T02:05:54.595Z,10.85
2022-12-09T02:08:58.044Z,10.77
2022-12-09T02:12:02.222Z,11.45
2022-12-09T02:15:26.132Z,10.90
2022-12-09T02:18:33.971Z,10.60
2022-12-09T02:21:50.303Z,11.77
2022-12-09T02:25:01.379Z,11.63
2022-12-09T02:28:28.358Z,9.82
2022-12-09T02:31:46.142Z,12.38
2022-12-09T02:35:25.141Z,9.65
2022-12-09T02:38:33.476Z,11.00
2022-12-09T02:41:39.201Z,10.60
2022-12-09T02:44:43.476Z,11.48
2022-12-09T02:47:52.789Z,11.23
2022-12-09T02:50:57.535Z,10.07
2022-12-09T02:54:05.412Z,10.77
2022-12-09T02:57:17.869Z,10.82
2022-12-09T03:00:21.124Z,9.98
2022-12-09T03:03:23.396Z,10.95
2022-12-09T03:06:31.419Z,10.23
2022-12-09T03:09:36.892Z,10.85
2022-12-09T03:12:42.861Z,11.02
2022-12-09T03:15:51.382Z,12.05
2022-12-09T03:19:06.015Z,11.32
2022-12-09T03:22:14.269Z,11.43
2022-12-09T03:25:23.910Z,10.75
2022-12-09T03:28:38.853Z,11.55
2022-12-09T03:31:42.004Z,10.82
2022-12-09T03:34:46.566Z,11.30
2022-12-09T03:37:51.234Z,9.82
2022-12-09T03:41:08.819Z,11.70
2022-12-09T03:44:17.161Z,10.25
2022-12-09T03:47:19.020Z,11.32
2022-12-09T03:50:24.712Z,11.80
2022-12-09T03:53:35.620Z,11.32
2022-12-09T03:56:41.254Z,11.07
2022-12-09T03:59:46.678Z,10.35
2022-12-09T04:02:48.788Z,11.07
2022-12-09T04:05:50.583Z,10.48
2022-12-09T04:08:55.309Z,9.55
2022-12-09T04:11:59.814Z,11.00
2022-12-09T04:15:02.049Z,11.35
2022-12-09T04:18:04.146Z,11.02
2022-12-09T04:21:07.965Z,14.48
2022-12-09T04:24:10.121Z,11.07
2022-12-09T04:27:12.611Z,10.80
2022-12-09T04:30:14.711Z,10.77
2022-12-09T04:33:17.053Z,10.75
2022-12-09T04:36:20.337Z,10.85
2022-12-09T04:39:23.004Z,10.40
2022-12-09T04:42:24.942Z,10.80
2022-12-09T04:45:26.802Z,10.38
2022-12-09T04:48:29.227Z,10.80
2022-12-09T04:51:39.205Z,10.25
2022-12-09T04:54:41.857Z,9.57
2022-12-09T04:57:43.726Z,10.35
2022-12-09T05:00:45.485Z,10.13
2022-12-09T05:03:54.860Z,10.70
2022-12-09T05:06:57.124Z,10.43
2022-12-09T05:10:00.307Z,10.52
2022-12-09T05:13:02.205Z,10.68
2022-12-09T05:16:13.853Z,9.55
2022-12-09T05:19:18.659Z,11.00
2022-12-09T05:22:20.626Z,10.75
2022-12-09T05:25:23.329Z,9.82
2022-12-09T05:28:25.722Z,10.02
2022-12-09T05:31:27.627Z,10.27
2022-12-09T05:34:29.895Z,9.63
2022-12-09T05:37:31.887Z,11.95
2022-12-09T05:40:33.630Z,11.23
2022-12-09T05:43:36.917Z,12.55
2022-12-09T05:46:38.892Z,11.93
2022-12-09T05:49:40.793Z,12.15
2022-12-09T05:52:42.709Z,11.10
2022-12-09T05:55:44.874Z,11.30
2022-12-09T05:58:47.500Z,12.75
2022-12-09T06:01:49.459Z,11.93
2022-12-09T06:04:52.017Z,12.07
2022-12-09T06:07:53.999Z,10.45
2022-12-09T06:10:56.023Z,11.18
2022-12-09T06:13:58.360Z,11.80
2022-12-09T06:17:00.391Z,10.52
2022-12-09T06:20:04.424Z,12.05
2022-12-09T06:23:07.204Z,11.00
2022-12-09T06:26:26.047Z,10.77
2022-12-09T06:29:28.228Z,9.88
2022-12-09T06:32:33.726Z,10.65
2022-12-09T06:35:36.161Z,10.10
2022-12-09T06:38:38.273Z,10.00
2022-12-09T06:41:42.153Z,11.30
2022-12-09T06:44:44.399Z,10.48
2022-12-09T06:47:47.381Z,10.43
2022-12-09T06:50:51.495Z,10.50
2022-12-09T06:53:53.594Z,10.57
2022-12-09T06:56:56.282Z,10.35
2022-12-09T06:59:58.191Z,10.52
2022-12-09T07:03:00.485Z,11.23
2022-12-09T07:06:03.509Z,9.93
2022-12-09T07:09:10.606Z,11.13
2022-12-09T07:12:12.939Z,10.82
2022-12-09T07:15:15.162Z,12.73
2022-12-09T07:18:17.670Z,11.40
2022-12-09T07:21:20.908Z,11.55
2022-12-09T07:24:23.767Z,10.98
2022-12-09T07:27:25.720Z,10.82
2022-12-09T07:30:27.798Z,10.45
2022-12-09T07:33:30.621Z,10.57
2022-12-09T07:36:35.310Z,10.98
2022-12-09T07:39:36.987Z,13.05
2022-12-09T07:42:39.210Z,12.70
2022-12-09T07:45:41.110Z,12.27
2022-12-09T07:48:43.661Z,11.65
2022-12-09T07:51:45.974Z,11.88
2022-12-09T07:54:47.678Z,12.20
2022-12-09T07:57:49.769Z,11.43
2022-12-09T08:00:51.501Z,11.55
2022-12-09T08:03:54.429Z,9.95
2022-12-09T08:06:56.951Z,11.07
2022-12-09T08:09:59.451Z,10.38
2022-12-09T08:13:01.345Z,10.77
2022-12-09T08:16:07.847Z,10.82
2022-12-09T08:19:10.332Z,11.52
2022-12-09T08:22:12.343Z,10.68
2022-12-09T08:25:15.018Z,10.70
2022-12-09T08:28:17.302Z,11.48
2022-12-09T08:31:23.346Z,11.70
2022-12-09T08:34:25.493Z,9.77
2022-12-09T08:37:27.921Z,10.07
2022-12-09T08:40:30.229Z,10.60
2022-12-09T08:43:32.549Z,10.75
2022-12-09T08:46:35.778Z,10.40
2022-12-09T08:49:37.701Z,10.98
2022-12-09T08:52:41.532Z,11.20
2022-12-09T08:55:43.694Z,11.15
2022-12-09T08:58:47.299Z,11.02
2022-12-09T09:01:49.695Z,11.07
2022-12-09T09:04:52.273Z,10.65
2022-12-09T09:07:54.454Z,10.55
2022-12-09T09:10:57.597Z,11.27
2022-12-09T09:14:00.279Z,10.45
2022-12-09T09:17:02.661Z,10.35
2022-12-09T09:20:05.055Z,11.30
2022-12-09T09:23:06.848Z,10.32
2022-12-09T09:26:16.591Z,10.30
2022-12-09T09:29:20.553Z,10.38
2022-12-09T09:32:22.462Z,9.52
2022-12-09T09:35:24.656Z,10.27
2022-12-09T09:38:27.667Z,10.85
2022-12-09T09:41:47.466Z,11.25
2022-12-09T09:44:52.836Z,11.95
2022-12-09T09:48:04.904Z,12.10
2022-12-09T09:51:15.152Z,11.77
2022-12-09T09:54:17.407Z,11.88
2022-12-09T09:57:32.674Z,12.13
2022-12-09T10:00:52.559Z,11.35
2022-12-09T10:04:27.415Z,11.02
2022-12-09T10:07:44.101Z,11.05
2022-12-09T10:11:19.729Z,11.07
2022-12-09T10:14:56.386Z,11.48
2022-12-09T10:18:12.873Z,10.40
2022-12-09T10:21:21.851Z,11.57
2022-12-09T10:24:39.261Z,10.13
2022-12-09T10:27:50.567Z,10.98
2022-12-09T10:30:54.765Z,10.63
2022-12-09T10:33:56.826Z,10.52
2022-12-09T10:36:59.759Z,12.15
2022-12-09T10:40:07.846Z,11.95
2022-12-09T10:43:41.026Z,11.85
2022-12-09T10:46:43.433Z,12.30
2022-12-09T10:49:48.157Z,10.90
2022-12-09T10:52:50.106Z,11.93
2022-12-09T10:55:55.519Z,12.32
2022-12-09T10:59:20.391Z,13.43
2022-12-09T11:02:23.829Z,12.90
2022-12-09T11:05:28.784Z,14.07
2022-12-09T11:08:32.099Z,13.07
2022-12-09T11:11:50.468Z,12.60
2022-12-09T11:14:54.114Z,11.60
2022-12-09T11:18:08.726Z,11.63
2022-12-09T11:21:32.749Z,12.52
2022-12-09T11:24:36.224Z,12.57
2022-12-09T11:27:41.376Z,11.43
2022-12-09T11:31:28.891Z,11.20
2022-12-09T11:34:31.771Z,11.32
2022-12-09T11:37:35.439Z,10.77
2022-12-09T11:40:37.053Z,11.85
2022-12-09T11:43:41.549Z,12.40
2022-12-09T11:46:43.361Z,12.52
2022-12-09T11:49:50.075Z,11.50
2022-12-09T11:53:13.579Z,10.82
2022-12-09T11:56:25.919Z,11.23
2022-12-09T11:59:38.149Z,10.88
2022-12-09T12:03:12.917Z,11.82
2022-12-09T12:06:23.733Z,11.00
2022-12-09T12:09:43.731Z,11.63
2022-12-09T12:13:23.147Z,11.68
2022-12-09T12:16:36.191Z,10.93
2022-12-09T12:19:43.503Z,11.13
2022-12-09T12:23:27.085Z,12.23
2022-12-09T12:26:43.767Z,12.13
2022-12-09T12:30:09.247Z,11.77
2022-12-09T12:37:25.814Z,11.73
2022-12-09T12:40:40.027Z,12.85
2022-12-09T12:44:18.486Z,13.68
2022-12-09T12:47:57.831Z,12.23
2022-12-09T12:51:18.004Z,12.68
2022-12-09T12:54:48.472Z,14.20
2022-12-09T12:58:09.854Z,12.77
2022-12-09T13:01:11.712Z,12.40
2022-12-09T13:04:45.246Z,12.30
2022-12-09T13:07:55.480Z,12.38
2022-12-09T13:11:03.011Z,11.82
2022-12-09T13:14:13.630Z,11.40
2022-12-09T13:17:15.775Z,12.38
2022-12-09T13:20:43.695Z,12.32
2022-12-09T13:24:03.261Z,14.02
2022-12-09T13:27:47.660Z,11.77
2022-12-09T13:30:57.612Z,12.10
2022-12-09T13:34:23.622Z,11.70
2022-12-09T13:37:34.774Z,11.18
2022-12-09T13:40:39.011Z,11.75
2022-12-09T13:43:41.266Z,11.18
2022-12-09T13:46:43.411Z,11.88
2022-12-09T13:49:55.714Z,9.80
2022-12-09T13:53:18.103Z,9.65
2022-12-09T13:56:19.693Z,9.40
2022-12-09T13:59:51.995Z,9.93
2022-12-09T14:03:06.034Z,10.13
2022-12-09T14:06:23.027Z,10.73
2022-12-09T14:09:48.991Z,10.82
2022-12-09T14:12:50.701Z,10.52
2022-12-09T14:16:29.351Z,10.43
2022-12-09T14:19:33.282Z,12.02
2022-12-09T14:22:38.566Z,11.38
2022-12-09T14:26:06.762Z,10.75
2022-12-09T14:29:08.903Z,10.70
2022-12-09T14:32:29.565Z,9.27
2022-12-09T14:35:50.220Z,10.90
2022-12-09T14:39:25.296Z,10.85
2022-12-09T14:42:37.550Z,13.00
2022-12-09T14:46:06.049Z,13.93
2022-12-09T14:49:19.371Z,13.35
2022-12-09T14:52:32.005Z,13.60
2022-12-09T14:55:40.239Z,13.18
2022-12-09T14:58:49.091Z,12.82
2022-12-09T15:01:59.654Z,12.60
2022-12-09T15:05:02.710Z,13.20
2022-12-09T15:08:05.590Z,12.80
2022-12-09T15:11:13.037Z,11.98
2022-12-09T15:14:30.034Z,11.73
2022-12-09T15:18:00.083Z,12.07
2022-12-09T15:21:01.936Z,12.13
2022-12-09T15:24:05.263Z,11.25
2022-12-09T15:27:16.557Z,12.60
2022-12-09T15:30:29.081Z,12.40
2022-12-09T15:33:43.564Z,12.15
2022-12-09T15:36:52.723Z,11.35
2022-12-09T15:40:00.513Z,11.23
2022-12-09T15:43:08.739Z,12.15
2022-12-09T15:46:12.297Z,12.68
2022-12-09T15:49:18.439Z,12.55
2022-12-09T15:52:25.226Z,13.15
2022-12-09T15:55:40.681Z,13.93
2022-12-09T15:58:49.697Z,13.18
2022-12-09T16:01:54.516Z,15.23
2022-12-09T16:05:01.740Z,13.50
2022-12-09T16:08:03.824Z,13.25
2022-12-09T16:11:06.355Z,12.85
2022-12-09T16:14:09.569Z,14.45
2022-12-09T16:17:21.325Z,14.50
2022-12-09T16:20:33.348Z,14.90
2022-12-09T16:23:35.560Z,12.98
2022-12-09T16:26:43.425Z,14.68
2022-12-09T16:29:54.800Z,16.83
2022-12-09T16:33:02.024Z,15.43
2022-12-09T16:36:06.321Z,15.13
2022-12-09T16:39:10.003Z,20.65
2022-12-09T16:42:23.510Z,18.40
2022-12-09T16:45:38.675Z,16.33
2022-12-09T16:48:41.316Z,14.52
2022-12-09T16:51:43.167Z,14.68
2022-12-09T16:54:47.605Z,14.55
2022-12-09T16:57:50.835Z,13.05
2022-12-09T17:00:54.939Z,15.32
2022-12-09T17:04:02.679Z,15.18
2022-12-09T17:07:04.585Z,13.80
2022-12-09T17:10:06.954Z,14.85
2022-12-09T17:13:08.905Z,14.48
2022-12-09T17:16:10.974Z,15.40
2022-12-09T17:19:13.367Z,15.57
2022-12-09T17:22:16.721Z,14.70
2022-12-09T17:25:18.693Z,14.63
2022-12-09T17:28:20.717Z,15.38
2022-12-09T17:31:24.072Z,16.05
2022-12-09T17:34:25.709Z,15.73
2022-12-09T17:37:30.165Z,13.07
2022-12-09T17:40:33.784Z,14.00
2022-12-09T17:43:36.535Z,15.23
2022-12-09T17:46:38.901Z,14.23
2022-12-09T17:49:40.666Z,13.75
2022-12-09T17:52:43.061Z,12.95
2022-12-09T17:55:44.838Z,13.60
2022-12-09T17:58:47.527Z,13.18
2022-12-09T18:01:49.151Z,13.23
2022-12-09T18:04:50.964Z,12.80
2022-12-09T18:07:52.983Z,12.35
2022-12-09T18:10:54.740Z,12.98
2022-12-09T18:13:56.432Z,14.40
2022-12-09T18:16:58.247Z,13.93
2022-12-09T18:20:00.613Z,12.98
2022-12-09T18:23:02.336Z,13.52
2022-12-09T18:26:11.234Z,14.18
2022-12-09T18:29:13.660Z,15.27
2022-12-09T18:32:15.439Z,14.57
2022-12-09T18:35:17.174Z,14.82
2022-12-09T18:38:19.044Z,15.25
2022-12-09T18:41:23.969Z,16.02
2022-12-09T18:44:25.795Z,15.00
2022-12-09T18:47:27.652Z,15.38
2022-12-09T18:50:29.460Z,17.05
2022-12-09T18:53:31.054Z,16.45
2022-12-09T18:56:33.443Z,16.38
2022-12-09T18:59:35.492Z,17.13
2022-12-09T19:02:37.334Z,16.58
2022-12-09T19:05:41.278Z,15.85
2022-12-09T19:08:42.899Z,17.70
2022-12-09T19:11:46.765Z,16.25
2022-12-09T19:14:48.393Z,14.88
2022-12-09T19:17:50.794Z,12.98
2022-12-09T19:20:52.601Z,14.50
2022-12-09T19:23:55.086Z,14.05
2022-12-09T19:26:57.822Z,14.80
2022-12-09T19:29:59.684Z,15.43
2022-12-09T19:33:01.415Z,13.57
2022-12-09T19:36:03.999Z,14.60
2022-12-09T19:39:08.421Z,15.32
2022-12-09T19:42:11.371Z,16.05
2022-12-09T19:45:14.505Z,14.63
2022-12-09T19:48:16.372Z,14.15
2022-12-09T19:51:18.990Z,16.05
2022-12-09T19:54:26.700Z,14.25
2022-12-09T19:57:31.265Z,15.07
2022-12-09T20:00:36.809Z,15.93
2022-12-09T20:03:43.666Z,14.68
2022-12-09T20:06:46.256Z,15.27
2022-12-09T20:09:48.289Z,14.48
2022-12-09T20:12:50.003Z,15.05
2022-12-09T20:15:51.742Z,15.07
2022-12-09T20:18:55.786Z,16.08
2022-12-09T20:21:57.968Z,15.00
2022-12-09T20:24:59.576Z,15.70
2022-12-09T20:28:02.371Z,16.83
2022-12-09T20:31:14.786Z,15.35
2022-12-09T20:34:16.754Z,16.00
2022-12-09T20:37:18.451Z,16.35
2022-12-09T20:40:19.987Z,16.33
2022-12-09T20:43:21.772Z,14.95
2022-12-09T20:46:26.118Z,17.20
2022-12-09T20:49:27.815Z,16.48
2022-12-09T20:52:29.382Z,16.77
2022-12-09T20:55:31.162Z,16.17
2022-12-09T20:58:33.340Z,17.00
2022-12-09T21:01:36.375Z,17.83
2022-12-09T21:04:39.132Z,18.20
2022-12-09T21:07:41.914Z,16.20
2022-12-09T21:10:44.188Z,18.60
2022-12-09T21:13:49.063Z,18.85
2022-12-09T21:16:51.298Z,17.75
2022-12-09T21:19:53.220Z,18.15
2022-12-09T21:23:25.240Z,20.58
2022-12-09T21:26:18.847Z,19.40
2022-12-09T21:29:21.234Z,18.98
2022-12-09T21:32:23.277Z,21.13
2022-12-09T21:35:24.855Z,20.10
2022-12-09T21:38:26.906Z,22.60
2022-12-09T21:41:31.726Z,19.23
2022-12-09T21:44:34.191Z,20.00
2022-12-09T21:47:35.924Z,18.17
2022-12-09T21:50:37.465Z,19.08
2022-12-09T21:53:40.240Z,20.02
2022-12-09T21:56:41.921Z,19.77
2022-12-09T21:59:43.869Z,19.58
2022-12-09T22:02:47.212Z,20.17
2022-12-09T22:05:52.615Z,19.85
2022-12-09T22:08:59.850Z,20.10
2022-12-09T22:12:01.516Z,19.75
2022-12-09T22:15:03.623Z,21.63
2022-12-09T22:18:05.297Z,19.58
2022-12-09T22:21:27.061Z,19.17
2022-12-09T22:24:29.727Z,19.77
2022-12-09T22:27:31.415Z,20.38
2022-12-09T22:30:36.011Z,19.20
2022-12-09T22:33:38.360Z,18.92
2022-12-09T22:36:41.435Z,19.70
2022-12-09T22:39:43.198Z,20.85
2022-12-09T22:42:44.987Z,20.73
2022-12-09T22:45:46.581Z,21.95
2022-12-09T22:48:48.785Z,21.40
2022-12-09T22:51:55.192Z,20.10
2022-12-09T22:55:00.720Z,20.40
2022-12-09T22:58:02.526Z,21.40
2022-12-09T23:01:17.631Z,19.20
2022-12-09T23:04:22.046Z,19.55
2022-12-09T23:07:23.663Z,20.83
2022-12-09T23:10:25.298Z,20.92
2022-12-09T23:13:26.972Z,19.50
2022-12-09T23:16:29.025Z,18.13
2022-12-09T23:19:30.702Z,18.70
2022-12-09T23:22:32.443Z,19.63
2022-12-09T23:25:34.448Z,20.17
2022-12-09T23:28:37.526Z,19.27
2022-12-09T23:31:40.088Z,19.35
2022-12-09T23:34:42.431Z,21.17
2022-12-09T23:37:44.125Z,20.30
2022-12-09T23:40:53.338Z,21.75
2022-12-09T23:43:55.467Z,21.27
2022-12-09T23:46:57.136Z,19.38
2022-12-09T23:49:58.855Z,20.50
2022-12-09T23:53:00.392Z,19.40
2022-12-09T23:56:02.061Z,18.05
2022-12-09T23:59:06.290Z,18.27
